createdAt,value
2022-11-29T00:01:36.504Z,79.88
2022-11-29T00:04:05.165Z,79.29
2022-11-29T00:06:34.427Z,79.26
2022-11-29T00:09:06.606Z,78.78
2022-11-29T00:11:55.770Z,78.31
2022-11-29T00:14:27.078Z,78.83
2022-11-29T00:16:59.547Z,78.71
2022-11-29T00:19:28.434Z,78.29
2022-11-29T00:21:56.695Z,78.83
2022-11-29T00:24:24.597Z,79.30
2022-11-29T00:26:52.717Z,79.41
2022-11-29T00:29:20.647Z,78.70
2022-11-29T00:31:48.664Z,78.88
2022-11-29T00:34:16.688Z,78.94
2022-11-29T00:36:44.654Z,78.83
2022-11-29T00:39:12.996Z,78.07
2022-11-29T00:41:40.992Z,77.72
2022-11-29T00:44:10.546Z,77.88
2022-11-29T00:46:40.865Z,78.31
2022-11-29T00:49:09.004Z,78.34
2022-11-29T00:51:37.135Z,78.55
2022-11-29T00:54:05.324Z,78.36
2022-11-29T00:56:33.292Z,78.47
2022-11-29T00:59:01.210Z,78.10
2022-11-29T01:01:29.275Z,78.22
2022-11-29T01:03:57.311Z,77.90
2022-11-29T01:06:25.243Z,77.30
2022-11-29T01:08:54.117Z,77.38
2022-11-29T01:11:25.260Z,77.66
2022-11-29T01:13:59.229Z,77.83
2022-11-29T01:16:30.374Z,77.93
2022-11-29T01:18:58.512Z,78.20
2022-11-29T01:21:26.754Z,77.85
2022-11-29T01:23:55.276Z,77.32
2022-11-29T01:26:26.024Z,78.03
2022-11-29T01:28:56.412Z,78.21
2022-11-29T01:31:30.759Z,78.29
2022-11-29T01:34:01.496Z,78.47
2022-11-29T01:36:30.083Z,78.10
2022-11-29T01:39:02.832Z,78.42
2022-11-29T01:41:33.500Z,78.14
2022-11-29T01:44:28.021Z,78.56
2022-11-29T01:46:56.880Z,78.38
2022-11-29T01:49:30.837Z,78.27
2022-11-29T01:52:01.162Z,78.53
2022-11-29T01:54:32.021Z,79.00
2022-11-29T01:57:02.811Z,78.30
2022-11-29T01:59:31.157Z,78.73
2022-11-29T02:02:06.133Z,78.76
2022-11-29T02:04:35.919Z,79.00
2022-11-29T02:07:04.405Z,78.78
2022-11-29T02:09:32.510Z,78.81
2022-11-29T02:12:44.896Z,78.91
2022-11-29T02:15:50.617Z,78.41
2022-11-29T02:18:32.884Z,78.59
2022-11-29T02:21:32.741Z,78.39
2022-11-29T02:24:29.763Z,78.71
2022-11-29T02:27:00.410Z,78.99
2022-11-29T02:29:46.852Z,78.31
2022-11-29T02:32:48.445Z,78.22
2022-11-29T02:35:25.495Z,78.93
2022-11-29T02:38:18.996Z,78.23
2022-11-29T02:40:58.636Z,78.33
2022-11-29T02:43:45.190Z,78.21
2022-11-29T02:46:51.467Z,78.67
2022-11-29T02:49:59.203Z,78.07
2022-11-29T02:52:49.272Z,78.08
2022-11-29T02:55:56.069Z,78.48
2022-11-29T03:01:32.264Z,79.46
2022-11-29T03:04:46.368Z,79.14
2022-11-29T03:07:41.659Z,79.26
2022-11-29T03:10:23.628Z,79.04
2022-11-29T03:12:54.001Z,79.24
2022-11-29T03:15:29.800Z,79.41
2022-11-29T03:18:13.698Z,79.07
2022-11-29T03:21:12.886Z,78.72
2022-11-29T03:23:40.977Z,78.29
2022-11-29T03:26:14.476Z,77.93
2022-11-29T03:29:09.405Z,77.87
2022-11-29T03:31:44.173Z,77.68
2022-11-29T03:34:27.268Z,77.66
2022-11-29T03:37:18.943Z,77.30
2022-11-29T03:40:13.115Z,77.65
2022-11-29T03:42:53.336Z,76.71
2022-11-29T03:45:34.012Z,76.58
2022-11-29T03:48:11.037Z,77.27
2022-11-29T03:50:43.784Z,77.38
2022-11-29T03:53:29.192Z,77.27
2022-11-29T03:56:00.615Z,76.82
2022-11-29T03:59:12.693Z,77.50
2022-11-29T04:02:04.106Z,77.05
2022-11-29T04:04:55.932Z,77.29
2022-11-29T04:07:58.060Z,77.29
2022-11-29T04:10:38.367Z,77.00
2022-11-29T04:13:09.399Z,76.75
2022-11-29T04:16:11.721Z,77.15
2022-11-29T04:19:17.025Z,76.91
2022-11-29T04:21:56.518Z,77.19
2022-11-29T04:24:39.489Z,77.56
2022-11-29T04:27:29.417Z,77.34
2022-11-29T04:30:18.180Z,77.33
2022-11-29T04:33:23.601Z,77.75
2022-11-29T04:36:11.527Z,77.54
2022-11-29T04:39:01.047Z,77.74
2022-11-29T04:41:31.805Z,77.92
2022-11-29T04:44:13.297Z,78.14
2022-11-29T04:46:56.056Z,77.74
2022-11-29T04:49:27.012Z,77.68
2022-11-29T04:51:57.251Z,78.13
2022-11-29T04:54:32.144Z,78.65
2022-11-29T04:57:13.203Z,78.78
2022-11-29T05:00:07.347Z,78.18
2022-11-29T05:02:45.336Z,78.09
2022-11-29T05:05:22.080Z,77.78
2022-11-29T05:08:24.324Z,77.70
2022-11-29T05:11:06.933Z,78.07
2022-11-29T05:14:13.632Z,78.79
2022-11-29T05:16:49.618Z,79.18
2022-11-29T05:19:35.579Z,78.90
2022-11-29T05:22:22.099Z,78.78
2022-11-29T05:25:22.380Z,79.03
2022-11-29T05:28:05.673Z,78.48
2022-11-29T05:31:19.465Z,78.19
2022-11-29T05:34:12.558Z,78.19
2022-11-29T05:36:54.020Z,78.31
2022-11-29T05:39:47.987Z,78.50
2022-11-29T05:42:25.236Z,78.92
2022-11-29T05:45:28.706Z,78.45
2022-11-29T05:48:04.697Z,78.66
2022-11-29T05:51:11.081Z,79.67
2022-11-29T05:54:03.819Z,79.32
2022-11-29T05:56:48.758Z,78.57
2022-11-29T05:59:25.522Z,77.37
2022-11-29T06:02:02.056Z,77.95
2022-11-29T06:04:46.407Z,78.38
2022-11-29T06:07:33.438Z,78.33
2022-11-29T06:10:06.152Z,78.38
2022-11-29T06:12:36.229Z,78.18
2022-11-29T06:15:19.209Z,78.16
2022-11-29T06:17:59.658Z,78.35
2022-11-29T06:20:39.320Z,78.02
2022-11-29T06:23:30.160Z,78.11
2022-11-29T06:26:19.251Z,78.98
2022-11-29T06:29:11.072Z,78.79
2022-11-29T06:31:44.769Z,78.45
2022-11-29T06:34:30.726Z,78.38
2022-11-29T06:37:26.787Z,78.13
2022-11-29T06:39:56.113Z,77.63
2022-11-29T06:42:24.113Z,77.38
2022-11-29T06:44:52.523Z,77.52
2022-11-29T06:47:31.948Z,76.95
2022-11-29T06:50:04.194Z,76.54
2022-11-29T06:52:58.586Z,76.14
2022-11-29T06:55:58.399Z,75.70
2022-11-29T06:58:46.350Z,75.28
2022-11-29T07:01:23.195Z,74.84
2022-11-29T07:03:53.548Z,74.74
2022-11-29T07:06:24.820Z,74.89
2022-11-29T07:08:59.544Z,74.99
2022-11-29T07:11:28.656Z,74.97
2022-11-29T07:13:56.920Z,74.18
2022-11-29T07:16:32.152Z,74.28
2022-11-29T07:19:29.020Z,73.66
2022-11-29T07:22:01.956Z,73.54
2022-11-29T07:24:56.358Z,73.32
2022-11-29T07:27:47.430Z,73.99
2022-11-29T07:30:22.883Z,74.67
2022-11-29T07:33:00.549Z,74.46
2022-11-29T07:35:38.892Z,74.76
2022-11-29T07:38:19.494Z,74.84
2022-11-29T07:41:06.063Z,73.95
2022-11-29T07:43:55.947Z,74.20
2022-11-29T07:46:25.864Z,74.00
2022-11-29T07:48:53.804Z,73.91
2022-11-29T07:51:22.201Z,73.34
2022-11-29T07:53:50.205Z,74.03
2022-11-29T07:56:18.187Z,74.23
2022-11-29T07:58:46.298Z,74.69
2022-11-29T08:01:14.514Z,74.67
2022-11-29T08:03:42.950Z,74.61
2022-11-29T08:06:11.020Z,74.06
2022-11-29T08:08:43.722Z,74.70
2022-11-29T08:11:13.392Z,74.42
2022-11-29T08:13:41.229Z,73.71
2022-11-29T08:16:09.201Z,73.02
2022-11-29T08:18:37.442Z,72.78
2022-11-29T08:21:07.557Z,72.80
2022-11-29T08:23:36.787Z,72.08
2022-11-29T08:26:07.376Z,72.16
2022-11-29T08:28:35.496Z,73.28
2022-11-29T08:31:05.264Z,72.74
2022-11-29T08:33:35.889Z,73.23
2022-11-29T08:36:13.051Z,72.57
2022-11-29T08:38:41.197Z,72.42
2022-11-29T08:41:12.104Z,72.93
2022-11-29T08:43:41.062Z,72.34
2022-11-29T08:46:11.446Z,72.27
2022-11-29T08:48:43.105Z,72.52
2022-11-29T08:51:11.045Z,72.58
2022-11-29T08:53:42.128Z,72.22
2022-11-29T08:56:49.348Z,72.71
2022-11-29T08:58:59.657Z,72.37
2022-11-29T09:01:29.502Z,72.63
2022-11-29T09:04:00.670Z,72.67
2022-11-29T09:06:33.039Z,73.03
2022-11-29T09:09:04.056Z,73.09
2022-11-29T09:11:34.764Z,72.87
2022-11-29T09:14:05.954Z,74.04
2022-11-29T09:16:36.778Z,72.96
2022-11-29T09:19:06.279Z,73.00
2022-11-29T09:21:38.869Z,73.42
2022-11-29T09:24:07.164Z,73.13
2022-11-29T09:26:37.057Z,73.28
2022-11-29T09:29:06.822Z,72.92
2022-11-29T09:31:35.611Z,73.08
2022-11-29T09:34:03.820Z,72.97
2022-11-29T09:36:31.934Z,73.07
2022-11-29T09:39:05.399Z,72.69
2022-11-29T09:41:47.091Z,72.70
2022-11-29T09:44:25.640Z,73.17
2022-11-29T09:47:12.381Z,72.96
2022-11-29T09:49:55.568Z,73.05
2022-11-29T09:52:26.085Z,72.44
2022-11-29T09:55:31.002Z,72.66
2022-11-29T09:58:01.269Z,72.93
2022-11-29T10:00:31.186Z,72.35
2022-11-29T10:03:13.727Z,72.51
2022-11-29T10:05:47.674Z,71.28
2022-11-29T10:08:24.826Z,71.91
2022-11-29T10:10:58.884Z,71.88
2022-11-29T10:13:34.438Z,72.19
2022-11-29T10:16:24.344Z,72.23
2022-11-29T10:19:27.201Z,72.95
2022-11-29T10:22:02.074Z,72.42
2022-11-29T10:24:32.784Z,72.33
2022-11-29T10:27:00.876Z,72.23
2022-11-29T10:29:29.076Z,72.49
2022-11-29T10:31:59.484Z,73.12
2022-11-29T10:34:31.178Z,72.11
2022-11-29T10:37:02.548Z,72.12
2022-11-29T10:39:39.870Z,73.64
2022-11-29T10:42:35.783Z,72.81
2022-11-29T10:45:05.703Z,72.88
2022-11-29T10:47:33.971Z,73.38
2022-11-29T10:50:02.693Z,72.83
2022-11-29T10:52:30.828Z,74.02
2022-11-29T10:55:00.364Z,73.67
2022-11-29T10:57:28.424Z,74.09
2022-11-29T11:00:07.375Z,74.18
2022-11-29T11:02:36.179Z,74.47
2022-11-29T11:05:18.842Z,74.67
2022-11-29T11:07:57.698Z,74.74
2022-11-29T11:10:31.105Z,74.80
2022-11-29T11:13:19.593Z,74.45
2022-11-29T11:15:47.730Z,74.96
2022-11-29T11:18:24.570Z,75.14
2022-11-29T11:21:02.243Z,75.28
2022-11-29T11:23:39.883Z,74.44
2022-11-29T11:26:14.815Z,75.19
2022-11-29T11:28:52.734Z,75.07
2022-11-29T11:31:34.639Z,74.56
2022-11-29T11:34:39.080Z,74.80
2022-11-29T11:37:16.403Z,74.55
2022-11-29T11:39:47.119Z,74.71
2022-11-29T11:42:37.679Z,75.09
2022-11-29T11:45:23.641Z,74.74
2022-11-29T11:48:13.836Z,74.79
2022-11-29T11:50:57.787Z,75.41
2022-11-29T11:53:36.807Z,75.65
2022-11-29T11:56:10.879Z,74.26
2022-11-29T11:58:44.751Z,74.41
2022-11-29T12:01:12.774Z,74.99
2022-11-29T12:04:10.566Z,75.71
2022-11-29T12:06:45.349Z,75.68
2022-11-29T12:09:19.601Z,75.20
2022-11-29T12:11:57.213Z,75.68
2022-11-29T12:15:07.371Z,76.14
2022-11-29T12:17:44.111Z,75.99
2022-11-29T12:20:27.770Z,76.48
2022-11-29T12:23:13.929Z,76.32
2022-11-29T12:26:19.274Z,76.97
2022-11-29T12:29:00.257Z,76.91
2022-11-29T12:31:55.480Z,77.10
2022-11-29T12:34:35.881Z,77.55
2022-11-29T12:37:30.381Z,78.01
2022-11-29T12:40:23.928Z,77.57
2022-11-29T12:42:54.766Z,78.00
2022-11-29T12:45:27.494Z,79.13
2022-11-29T12:48:32.985Z,79.00
2022-11-29T12:51:31.492Z,79.69
2022-11-29T12:54:16.060Z,78.74
2022-11-29T12:57:09.186Z,78.95
2022-11-29T13:00:01.385Z,79.28
2022-11-29T13:03:03.300Z,79.56
2022-11-29T13:05:43.162Z,79.63
2022-11-29T13:08:17.384Z,79.55
2022-11-29T13:11:03.847Z,79.46
2022-11-29T13:13:37.791Z,79.70
2022-11-29T13:16:30.902Z,79.97
2022-11-29T13:19:02.050Z,80.89
2022-11-29T13:21:44.357Z,80.70
2022-11-29T13:24:52.338Z,81.13
2022-11-29T13:27:30.171Z,81.59
2022-11-29T13:30:01.067Z,81.46
2022-11-29T13:32:36.529Z,82.56
2022-11-29T13:35:27.658Z,81.68
2022-11-29T13:38:02.313Z,81.51
2022-11-29T13:40:37.585Z,81.55
2022-11-29T13:43:23.417Z,81.58
2022-11-29T13:45:58.923Z,81.64
2022-11-29T13:48:45.800Z,82.12
2022-11-29T13:51:28.761Z,82.08
2022-11-29T13:53:59.886Z,81.89
2022-11-29T13:56:46.800Z,81.61
2022-11-29T13:59:30.004Z,82.93
2022-11-29T14:01:59.419Z,81.98
2022-11-29T14:04:27.483Z,82.37
2022-11-29T14:07:21.688Z,82.17
2022-11-29T14:10:05.982Z,82.56
2022-11-29T14:13:03.134Z,82.94
2022-11-29T14:15:33.550Z,82.68
2022-11-29T14:18:09.102Z,82.04
2022-11-29T14:20:39.833Z,82.37
2022-11-29T14:23:08.018Z,82.40
2022-11-29T14:26:02.663Z,82.59
2022-11-29T14:28:35.222Z,82.36
2022-11-29T14:31:05.257Z,82.75
2022-11-29T14:34:00.669Z,82.59
2022-11-29T14:36:43.631Z,82.49
2022-11-29T14:39:34.539Z,83.16
2022-11-29T14:42:18.924Z,83.52
2022-11-29T14:44:52.113Z,83.04
2022-11-29T14:47:32.112Z,83.42
2022-11-29T14:50:04.479Z,82.89
2022-11-29T14:52:40.828Z,83.62
2022-11-29T14:55:30.958Z,83.29
2022-11-29T14:58:02.345Z,83.27
2022-11-29T15:00:32.973Z,83.48
2022-11-29T15:03:00.952Z,82.99
2022-11-29T15:05:33.833Z,83.31
2022-11-29T15:08:28.103Z,83.42
2022-11-29T15:11:15.048Z,83.31
2022-11-29T15:14:02.515Z,83.26
2022-11-29T15:16:52.645Z,83.43
2022-11-29T15:19:39.078Z,83.37
2022-11-29T15:22:36.562Z,83.56
2022-11-29T15:25:32.115Z,83.65
2022-11-29T15:28:02.889Z,82.73
2022-11-29T15:30:36.021Z,82.96
2022-11-29T15:33:07.512Z,82.97
2022-11-29T15:35:36.847Z,84.15
2022-11-29T15:38:04.920Z,83.48
2022-11-29T15:40:37.425Z,84.26
2022-11-29T15:43:17.255Z,84.35
2022-11-29T15:45:57.089Z,83.66
2022-11-29T15:48:31.118Z,84.03
2022-11-29T15:51:14.463Z,84.06
2022-11-29T15:54:13.269Z,83.46
2022-11-29T15:56:44.474Z,83.40
2022-11-29T15:59:38.825Z,83.09
2022-11-29T16:02:21.883Z,82.61
2022-11-29T16:04:54.160Z,83.42
2022-11-29T16:07:24.853Z,83.19
2022-11-29T16:10:05.018Z,83.12
2022-11-29T16:12:32.989Z,82.90
2022-11-29T16:15:01.773Z,82.57
2022-11-29T16:17:35.005Z,83.13
2022-11-29T16:20:15.009Z,82.93
2022-11-29T16:22:43.327Z,82.27
2022-11-29T16:25:19.596Z,82.72
2022-11-29T16:27:47.942Z,83.29
2022-11-29T16:30:24.306Z,82.80
2022-11-29T16:33:03.697Z,82.70
2022-11-29T16:35:36.768Z,82.38
2022-11-29T16:38:05.453Z,82.36
2022-11-29T16:40:35.658Z,82.24
2022-11-29T16:43:03.628Z,82.44
2022-11-29T16:45:43.556Z,82.92
2022-11-29T16:48:30.536Z,83.09
2022-11-29T16:51:10.546Z,82.45
2022-11-29T16:53:42.686Z,82.36
2022-11-29T16:56:13.516Z,82.67
2022-11-29T16:59:20.626Z,82.58
2022-11-29T17:01:31.986Z,82.80
2022-11-29T17:04:00.763Z,83.04
2022-11-29T17:06:29.759Z,83.18
2022-11-29T17:08:59.130Z,83.34
2022-11-29T17:11:27.125Z,83.88
2022-11-29T17:13:55.109Z,83.58
2022-11-29T17:16:24.873Z,83.72
2022-11-29T17:18:53.057Z,83.52
2022-11-29T17:21:26.353Z,83.43
2022-11-29T17:23:54.721Z,83.60
2022-11-29T17:26:23.360Z,83.33
2022-11-29T17:28:52.293Z,83.40
2022-11-29T17:31:23.460Z,83.53
2022-11-29T17:33:51.997Z,83.13
2022-11-29T17:36:20.709Z,83.48
2022-11-29T17:38:49.302Z,83.80
2022-11-29T17:41:22.201Z,83.44
2022-11-29T17:43:51.860Z,83.97
2022-11-29T17:46:30.648Z,83.39
2022-11-29T17:49:01.208Z,84.64
2022-11-29T17:51:51.144Z,83.97
2022-11-29T17:54:17.892Z,84.13
2022-11-29T17:56:45.733Z,83.89
2022-11-29T17:59:13.666Z,84.18
2022-11-29T18:01:41.799Z,84.27
2022-11-29T18:04:10.385Z,84.25
2022-11-29T18:06:40.546Z,84.69
2022-11-29T18:09:11.797Z,84.16
2022-11-29T18:11:47.633Z,84.33
2022-11-29T18:14:28.444Z,83.85
2022-11-29T18:16:56.784Z,84.57
2022-11-29T18:19:25.562Z,84.43
2022-11-29T18:21:53.549Z,85.06
2022-11-29T18:24:21.661Z,85.10
2022-11-29T18:26:49.843Z,85.84
2022-11-29T18:29:18.333Z,85.88
2022-11-29T18:31:46.869Z,85.42
2022-11-29T18:34:15.803Z,85.52
2022-11-29T18:36:46.523Z,84.85
2022-11-29T18:39:20.459Z,85.42
2022-11-29T18:41:50.424Z,85.55
2022-11-29T18:44:22.026Z,85.56
2022-11-29T18:46:50.712Z,85.23
2022-11-29T18:49:19.461Z,85.55
2022-11-29T18:51:50.082Z,85.42
2022-11-29T18:54:19.054Z,84.60
2022-11-29T18:56:51.537Z,84.60
2022-11-29T18:59:20.265Z,84.43
2022-11-29T19:01:49.086Z,84.80
2022-11-29T19:04:19.257Z,85.15
2022-11-29T19:06:48.721Z,84.99
2022-11-29T19:09:21.570Z,85.78
2022-11-29T19:11:51.231Z,85.74
2022-11-29T19:14:20.533Z,85.55
2022-11-29T19:16:50.223Z,85.36
2022-11-29T19:19:21.773Z,85.75
2022-11-29T19:21:50.731Z,85.82
2022-11-29T19:24:19.469Z,85.57
2022-11-29T19:26:50.220Z,86.26
2022-11-29T19:29:18.962Z,85.39
2022-11-29T19:31:47.563Z,85.54
2022-11-29T19:34:16.311Z,85.48
2022-11-29T19:36:45.554Z,85.51
2022-11-29T19:39:17.018Z,85.29
2022-11-29T19:41:48.260Z,84.91
2022-11-29T19:44:17.082Z,84.17
2022-11-29T19:46:48.931Z,84.50
2022-11-29T19:49:17.761Z,84.33
2022-11-29T19:51:46.500Z,84.95
2022-11-29T19:54:15.100Z,85.48
2022-11-29T19:56:44.060Z,85.58
2022-11-29T19:59:12.220Z,85.96
2022-11-29T20:01:42.780Z,85.70
2022-11-29T20:04:13.399Z,85.46
2022-11-29T20:06:41.970Z,85.69
2022-11-29T20:09:12.353Z,85.85
2022-11-29T20:11:40.838Z,86.14
2022-11-29T20:14:12.316Z,85.79
2022-11-29T20:16:41.423Z,85.78
2022-11-29T20:19:11.060Z,85.19
2022-11-29T20:21:43.045Z,85.54
2022-11-29T20:24:14.632Z,85.38
2022-11-29T20:26:45.517Z,86.01
2022-11-29T20:29:14.806Z,85.41
2022-11-29T20:31:49.634Z,85.53
2022-11-29T20:34:18.549Z,85.20
2022-11-29T20:37:15.008Z,85.51
2022-11-29T20:40:03.577Z,85.40
2022-11-29T20:42:44.881Z,85.58
2022-11-29T20:45:14.923Z,85.76
2022-11-29T20:47:55.830Z,85.77
2022-11-29T20:50:27.204Z,85.76
2022-11-29T20:53:10.721Z,85.52
2022-11-29T20:55:44.862Z,85.33
2022-11-29T20:58:16.863Z,85.46
2022-11-29T21:00:46.582Z,85.13
2022-11-29T21:03:16.253Z,85.32
2022-11-29T21:05:44.635Z,84.88
2022-11-29T21:08:13.714Z,85.57
2022-11-29T21:10:41.884Z,84.98
2022-11-29T21:13:12.782Z,85.03
2022-11-29T21:15:41.137Z,85.50
2022-11-29T21:18:20.233Z,85.24
2022-11-29T21:21:04.959Z,85.85
2022-11-29T21:23:41.741Z,85.15
2022-11-29T21:26:21.007Z,85.49
2022-11-29T21:29:10.522Z,84.85
2022-11-29T21:31:38.917Z,85.34
2022-11-29T21:34:06.938Z,84.90
2022-11-29T21:36:36.436Z,84.83
2022-11-29T21:39:06.256Z,85.21
2022-11-29T21:41:34.574Z,85.11
2022-11-29T21:44:07.472Z,85.59
2022-11-29T21:46:36.470Z,86.17
2022-11-29T21:49:05.123Z,85.61
2022-11-29T21:51:33.156Z,85.94
2022-11-29T21:54:02.378Z,85.68
2022-11-29T21:56:30.263Z,85.63
2022-11-29T21:58:58.343Z,85.19
2022-11-29T22:01:27.728Z,84.91
2022-11-29T22:03:56.017Z,85.58
2022-11-29T22:06:24.496Z,85.03
2022-11-29T22:08:52.889Z,85.20
2022-11-29T22:11:31.384Z,85.28
2022-11-29T22:14:13.853Z,85.47
2022-11-29T22:16:58.977Z,86.62
2022-11-29T22:19:30.952Z,87.24
2022-11-29T22:22:10.974Z,86.34
2022-11-29T22:24:39.009Z,86.51
2022-11-29T22:27:06.987Z,86.70
2022-11-29T22:29:34.958Z,86.45
2022-11-29T22:32:02.973Z,86.80
2022-11-29T22:34:31.036Z,85.93
2022-11-29T22:36:58.961Z,86.10
2022-11-29T22:39:27.055Z,86.47
2022-11-29T22:41:55.465Z,87.06
2022-11-29T22:44:24.386Z,86.41
2022-11-29T22:46:52.696Z,86.06
2022-11-29T22:49:20.832Z,86.62
2022-11-29T22:51:48.719Z,86.52
2022-11-29T22:54:17.628Z,85.57
2022-11-29T22:56:46.084Z,85.92
2022-11-29T22:59:14.619Z,85.89
2022-11-29T23:01:43.263Z,86.09
2022-11-29T23:04:13.340Z,86.37
2022-11-29T23:06:45.963Z,85.92
2022-11-29T23:09:17.074Z,85.71
2022-11-29T23:11:46.771Z,86.35
2022-11-29T23:14:14.809Z,86.01
2022-11-29T23:16:42.842Z,86.39
2022-11-29T23:19:11.047Z,86.02
2022-11-29T23:21:41.033Z,85.79
2022-11-29T23:24:09.103Z,85.92
2022-11-29T23:26:40.438Z,86.04
2022-11-29T23:29:14.027Z,85.62
2022-11-29T23:31:42.580Z,86.25
2022-11-29T23:34:10.723Z,86.32
2022-11-29T23:36:39.318Z,86.12
2022-11-29T23:39:07.857Z,86.08
2022-11-29T23:41:38.789Z,85.90
2022-11-29T23:44:07.109Z,85.98
2022-11-29T23:46:35.546Z,85.78
2022-11-29T23:49:03.947Z,85.37
2022-11-29T23:51:31.867Z,85.54
2022-11-29T23:53:59.911Z,85.09
2022-11-29T23:56:27.843Z,85.37
2022-11-29T23:58:55.896Z,85.91
